sensor_id;sensor_type;location;lat;lon;timestamp;pressure;altitude;pressure_sealevel;temperature;humidity
62864;BME280;48954;59.950;11.014;2023-02-19T08:11:41;99312.90;;;-4.51;62.71
62864;BME280;48954;59.950;11.014;2023-02-19T09:09:55;99346.13;;;-0.54;56.90
62864;BME280;48954;59.950;11.014;2023-02-19T10:18:07;99367.16;;;2.98;48.61
62864;BME280;48954;59.950;11.014;2023-02-19T13:03:48;99314.23;;;3.22;41.78
62864;BME280;48954;59.950;11.014;2023-02-19T13:44:58;99296.52;;;3.04;42.78
62864;BME280;48954;59.950;11.014;2023-02-19T13:54:12;99273.88;;;3.14;43.60
62864;BME280;48954;59.950;11.014;2023-02-19T14:05:09;99283.74;;;3.44;42.86
62864;BME280;48954;59.950;11.014;2023-02-19T14:07:53;99284.12;;;3.79;42.85
62864;BME280;48954;59.950;11.014;2023-02-19T14:10:56;99282.78;;;4.22;42.90
62864;BME280;48954;59.950;11.014;2023-02-19T14:23:08;99281.35;;;5.43;42.35
62864;BME280;48954;59.950;11.014;2023-02-19T14:25:58;99274.84;;;6.40;41.59
62864;BME280;48954;59.950;11.014;2023-02-19T14:28:44;99277.44;;;7.14;40.67
62864;BME280;48954;59.950;11.014;2023-02-19T14:31:37;99279.29;;;8.27;39.80
62864;BME280;48954;59.950;11.014;2023-02-19T14:34:32;99276.20;;;9.97;38.99
62864;BME280;48954;59.950;11.014;2023-02-19T14:37:02;99268.00;;;11.45;37.88
62864;BME280;48954;59.950;11.014;2023-02-19T14:39:39;99261.11;;;12.65;37.51
62864;BME280;48954;59.950;11.014;2023-02-19T14:42:24;99261.92;;;14.02;36.22
62864;BME280;48954;59.950;11.014;2023-02-19T14:45:38;99270.38;;;15.38;35.18
62864;BME280;48954;59.950;11.014;2023-02-19T14:48:33;99267.61;;;15.55;34.52
62864;BME280;48954;59.950;11.014;2023-02-19T14:51:36;99260.20;;;15.13;34.79
62864;BME280;48954;59.950;11.014;2023-02-19T14:54:40;99251.39;;;14.67;34.92
62864;BME280;48954;59.950;11.014;2023-02-19T14:57:17;99250.17;;;13.66;34.50
62864;BME280;48954;59.950;11.014;2023-02-19T14:59:56;99247.05;;;12.36;35.26
62864;BME280;48954;59.950;11.014;2023-02-19T15:02:26;99251.13;;;11.27;35.11
62864;BME280;48954;59.950;11.014;2023-02-19T15:04:54;99259.34;;;10.26;35.09
62864;BME280;48954;59.950;11.014;2023-02-19T15:07:32;99251.91;;;9.46;35.71
62864;BME280;48954;59.950;11.014;2023-02-19T15:10:18;99254.48;;;8.57;35.49
62864;BME280;48954;59.950;11.014;2023-02-19T15:15:23;99271.29;;;7.01;36.29
62864;BME280;48954;59.950;11.014;2023-02-19T15:18:40;99275.64;;;6.43;36.89
62864;BME280;48954;59.950;11.014;2023-02-19T15:21:26;99277.80;;;5.87;37.79
62864;BME280;48954;59.950;11.014;2023-02-19T15:53:35;99239.84;;;2.90;43.34
62864;BME280;48954;59.950;11.014;2023-02-19T16:01:40;99247.45;;;2.17;44.13
62864;BME280;48954;59.950;11.014;2023-02-19T16:05:00;99238.50;;;1.97;44.26
62864;BME280;48954;59.950;11.014;2023-02-19T16:43:46;99208.45;;;-0.22;48.86
62864;BME280;48954;59.950;11.014;2023-02-19T17:30:44;99151.96;;;-1.66;53.90
62864;BME280;48954;59.950;11.014;2023-02-19T19:13:45;99082.25;;;-2.77;60.33
62864;BME280;48954;59.950;11.014;2023-02-19T19:16:14;99087.95;;;-2.75;60.46
62864;BME280;48954;59.950;11.014;2023-02-19T19:19:00;99087.36;;;-2.77;60.68
62864;BME280;48954;59.950;11.014;2023-02-19T19:21:41;99084.63;;;-2.79;60.47
62864;BME280;48954;59.950;11.014;2023-02-19T19:24:29;99084.71;;;-2.81;60.46
62864;BME280;48954;59.950;11.014;2023-02-19T19:36:01;99067.50;;;-2.86;61.42
62864;BME280;48954;59.950;11.014;2023-02-19T19:41:29;99055.47;;;-2.85;61.36
62864;BME280;48954;59.950;11.014;2023-02-19T19:44:13;99049.98;;;-2.84;61.61
62864;BME280;48954;59.950;11.014;2023-02-19T19:46:55;99052.28;;;-2.83;61.79
62864;BME280;48954;59.950;11.014;2023-02-19T19:49:26;99051.89;;;-2.82;61.83
62864;BME280;48954;59.950;11.014;2023-02-19T19:52:11;99046.64;;;-2.84;61.78
62864;BME280;48954;59.950;11.014;2023-02-19T20:17:55;98992.30;;;-2.70;62.60
62864;BME280;48954;59.950;11.014;2023-02-19T20:20:29;98986.19;;;-2.68;62.78
62864;BME280;48954;59.950;11.014;2023-02-19T20:23:10;98981.83;;;-2.68;62.82
62864;BME280;48954;59.950;11.014;2023-02-19T20:25:38;98974.16;;;-2.66;62.90
62864;BME280;48954;59.950;11.014;2023-02-19T20:28:04;98964.13;;;-2.64;63.03
62864;BME280;48954;59.950;11.014;2023-02-19T20:30:31;98965.51;;;-2.63;63.26
62864;BME280;48954;59.950;11.014;2023-02-19T20:33:15;98972.30;;;-2.63;63.03
62864;BME280;48954;59.950;11.014;2023-02-19T20:36:00;98968.61;;;-2.61;62.96
62864;BME280;48954;59.950;11.014;2023-02-19T20:38:43;98965.81;;;-2.59;63.00
62864;BME280;48954;59.950;11.014;2023-02-19T20:41:24;98958.36;;;-2.58;63.25
62864;BME280;48954;59.950;11.014;2023-02-19T20:43:51;98940.48;;;-2.57;63.50
62864;BME280;48954;59.950;11.014;2023-02-19T20:46:18;98939.17;;;-2.56;63.44
62864;BME280;48954;59.950;11.014;2023-02-19T20:48:46;98942.17;;;-2.55;63.71
62864;BME280;48954;59.950;11.014;2023-02-19T20:51:13;98942.66;;;-2.56;63.69
62864;BME280;48954;59.950;11.014;2023-02-19T20:53:45;98930.86;;;-2.55;63.30
62864;BME280;48954;59.950;11.014;2023-02-19T20:56:16;98920.89;;;-2.54;63.39
62864;BME280;48954;59.950;11.014;2023-02-19T20:58:43;98929.60;;;-2.54;63.77
62864;BME280;48954;59.950;11.014;2023-02-19T21:01:10;98933.58;;;-2.53;63.45
62864;BME280;48954;59.950;11.014;2023-02-19T21:03:51;98925.73;;;-2.53;63.62
62864;BME280;48954;59.950;11.014;2023-02-19T21:06:19;98910.55;;;-2.54;63.76
62864;BME280;48954;59.950;11.014;2023-02-19T21:08:46;98893.05;;;-2.54;63.69
62864;BME280;48954;59.950;11.014;2023-02-19T21:11:14;98883.73;;;-2.54;64.31
62864;BME280;48954;59.950;11.014;2023-02-19T21:13:42;98886.14;;;-2.57;63.91
62864;BME280;48954;59.950;11.014;2023-02-19T21:16:09;98888.70;;;-2.58;64.01
62864;BME280;48954;59.950;11.014;2023-02-19T21:18:36;98889.14;;;-2.59;64.17
62864;BME280;48954;59.950;11.014;2023-02-19T21:21:03;98883.34;;;-2.60;63.98
62864;BME280;48954;59.950;11.014;2023-02-19T21:23:30;98875.34;;;-2.61;64.13
62864;BME280;48954;59.950;11.014;2023-02-19T21:25:57;98873.04;;;-2.61;64.45
62864;BME280;48954;59.950;11.014;2023-02-19T21:28:24;98879.84;;;-2.62;64.23
62864;BME280;48954;59.950;11.014;2023-02-19T21:30:51;98870.48;;;-2.63;64.58
62864;BME280;48954;59.950;11.014;2023-02-19T21:33:19;98860.96;;;-2.64;64.64
62864;BME280;48954;59.950;11.014;2023-02-19T21:35:45;98848.06;;;-2.65;64.62
62864;BME280;48954;59.950;11.014;2023-02-19T21:38:12;98831.19;;;-2.67;64.60
62864;BME280;48954;59.950;11.014;2023-02-19T21:40:42;98822.63;;;-2.70;64.97
62864;BME280;48954;59.950;11.014;2023-02-19T21:43:09;98813.21;;;-2.71;65.03
62864;BME280;48954;59.950;11.014;2023-02-19T21:45:36;98814.30;;;-2.72;64.99
62864;BME280;48954;59.950;11.014;2023-02-19T21:48:03;98800.69;;;-2.72;64.97
62864;BME280;48954;59.950;11.014;2023-02-19T21:50:35;98791.57;;;-2.73;64.88
62864;BME280;48954;59.950;11.014;2023-02-19T21:53:03;98790.05;;;-2.75;65.45
62864;BME280;48954;59.950;11.014;2023-02-19T21:55:31;98779.10;;;-2.77;65.23
62864;BME280;48954;59.950;11.014;2023-02-19T21:57:57;98769.86;;;-2.78;65.42
62864;BME280;48954;59.950;11.014;2023-02-19T22:00:24;98768.89;;;-2.78;65.00
62864;BME280;48954;59.950;11.014;2023-02-19T22:02:51;98768.70;;;-2.76;65.53
62864;BME280;48954;59.950;11.014;2023-02-19T22:05:31;98765.86;;;-2.73;65.71
62864;BME280;48954;59.950;11.014;2023-02-19T22:07:59;98754.49;;;-2.71;65.27
62864;BME280;48954;59.950;11.014;2023-02-19T22:10:26;98753.64;;;-2.69;65.64
62864;BME280;48954;59.950;11.014;2023-02-19T22:12:54;98749.78;;;-2.67;65.55
62864;BME280;48954;59.950;11.014;2023-02-19T22:15:24;98736.45;;;-2.65;65.66
62864;BME280;48954;59.950;11.014;2023-02-19T22:18:13;98724.35;;;-2.65;65.44
62864;BME280;48954;59.950;11.014;2023-02-19T22:20:59;98720.68;;;-2.65;65.49
62864;BME280;48954;59.950;11.014;2023-02-19T22:29:14;98697.66;;;-2.63;66.26
62864;BME280;48954;59.950;11.014;2023-02-19T22:32:15;98695.65;;;-2.61;66.28
62864;BME280;48954;59.950;11.014;2023-02-19T22:34:56;98687.34;;;-2.60;66.49
62864;BME280;48954;59.950;11.014;2023-02-19T22:37:23;98680.30;;;-2.59;66.33
62864;BME280;48954;59.950;11.014;2023-02-19T22:39:52;98667.98;;;-2.60;66.37
62864;BME280;48954;59.950;11.014;2023-02-19T22:42:25;98653.16;;;-2.59;66.93
62864;BME280;48954;59.950;11.014;2023-02-19T22:45:41;98642.36;;;-2.60;67.01
62864;BME280;48954;59.950;11.014;2023-02-19T22:48:09;98634.06;;;-2.59;67.23
62864;BME280;48954;59.950;11.014;2023-02-19T22:50:35;98631.89;;;-2.60;67.15
62864;BME280;48954;59.950;11.014;2023-02-19T22:53:02;98634.16;;;-2.64;67.18
62864;BME280;48954;59.950;11.014;2023-02-19T22:55:44;98631.14;;;-2.66;67.44
62864;BME280;48954;59.950;11.014;2023-02-19T22:58:10;98620.35;;;-2.68;67.60
62864;BME280;48954;59.950;11.014;2023-02-19T23:00:37;98600.63;;;-2.70;68.02
62864;BME280;48954;59.950;11.014;2023-02-19T23:03:04;98592.17;;;-2.70;67.86
62864;BME280;48954;59.950;11.014;2023-02-19T23:05:33;98581.48;;;-2.71;68.08
62864;BME280;48954;59.950;11.014;2023-02-19T23:07:59;98574.77;;;-2.72;68.23
62864;BME280;48954;59.950;11.014;2023-02-19T23:10:26;98561.23;;;-2.70;68.57
62864;BME280;48954;59.950;11.014;2023-02-19T23:12:52;98562.38;;;-2.71;68.48
62864;BME280;48954;59.950;11.014;2023-02-19T23:15:19;98555.60;;;-2.71;68.47
62864;BME280;48954;59.950;11.014;2023-02-19T23:17:46;98548.59;;;-2.73;68.78
62864;BME280;48954;59.950;11.014;2023-02-19T23:20:13;98539.09;;;-2.73;69.04
62864;BME280;48954;59.950;11.014;2023-02-19T23:22:40;98527.75;;;-2.72;69.13
62864;BME280;48954;59.950;11.014;2023-02-19T23:25:06;98506.41;;;-2.72;69.53
62864;BME280;48954;59.950;11.014;2023-02-19T23:27:33;98495.34;;;-2.70;69.50
62864;BME280;48954;59.950;11.014;2023-02-19T23:29:59;98483.54;;;-2.70;69.32
62864;BME280;48954;59.950;11.014;2023-02-19T23:32:26;98470.77;;;-2.69;69.53
62864;BME280;48954;59.950;11.014;2023-02-19T23:34:52;98462.09;;;-2.68;69.49
62864;BME280;48954;59.950;11.014;2023-02-19T23:37:19;98452.04;;;-2.69;69.77
62864;BME280;48954;59.950;11.014;2023-02-19T23:39:46;98443.71;;;-2.69;70.07
62864;BME280;48954;59.950;11.014;2023-02-19T23:42:14;98438.05;;;-2.69;70.06
62864;BME280;48954;59.950;11.014;2023-02-19T23:44:45;98431.41;;;-2.68;70.28
62864;BME280;48954;59.950;11.014;2023-02-19T23:47:12;98428.82;;;-2.68;70.49
62864;BME280;48954;59.950;11.014;2023-02-19T23:49:40;98425.67;;;-2.69;70.54
62864;BME280;48954;59.950;11.014;2023-02-19T23:52:06;98415.71;;;-2.70;70.84
62864;BME280;48954;59.950;11.014;2023-02-19T23:54:33;98408.52;;;-2.72;70.90
62864;BME280;48954;59.950;11.014;2023-02-19T23:57:00;98404.67;;;-2.72;70.83
62864;BME280;48954;59.950;11.014;2023-02-19T23:59:27;98402.25;;;-2.71;71.00
